Time;durP1;ratioP1;P1;durP2;ratioP2;P2;SDS_P1;SDS_P2;PMS_P1;PMS_P2;Temp;Humidity;BMP_temperature;BMP_pressure;BME280_temperature;BME280_humidity;BME280_pressure;Samples;Min_cycle;Max_cycle;Signal;HPM_P1;HPM_P2
2022/06/18 00:01:52;;;;;;;3.90;2.17;;;23.70;99.90;;;;;;5138915;27;20168;-69
2022/06/18 00:04:20;;;;;;;2.33;2.13;;;23.60;99.90;;;;;;5138912;27;20165;-70
2022/06/18 00:06:54;;;;;;;2.77;2.67;;;23.50;99.90;;;;;;5138631;27;20174;-68
2022/06/18 00:09:25;;;;;;;2.27;2.13;;;22.80;99.90;;;;;;5138647;27;20257;-71
2022/06/18 00:14:42;;;;;;;3.07;2.77;;;-9.40;99.20;;;;;;5138356;27;20172;-66
2022/06/18 00:17:16;;;;;;;7.43;3.17;;;23.10;99.90;;;;;;5137427;27;20173;-69
2022/06/18 00:19:42;;;;;;;5.07;1.50;;;23.50;99.90;;;;;;5138498;27;20185;-64
2022/06/18 00:22:17;;;;;;;3.80;2.60;;;23.50;99.90;;;;;;5138472;27;20169;-70
2022/06/18 00:24:44;;;;;;;3.63;2.33;;;23.60;99.90;;;;;;5138515;27;20476;-68
2022/06/18 00:27:16;;;;;;;3.00;2.70;;;23.60;99.90;;;;;;5138086;27;20168;-65
2022/06/18 00:29:41;;;;;;;2.50;2.30;;;23.70;99.90;;;;;;5138299;27;20252;-70
2022/06/18 00:32:09;;;;;;;3.53;2.70;;;23.70;99.90;;;;;;5138128;27;20544;-70
2022/06/18 00:34:35;;;;;;;2.63;2.47;;;23.80;99.90;;;;;;5138131;27;20698;-71
2022/06/18 00:37:03;;;;;;;2.57;2.37;;;23.80;99.90;;;;;;5138132;27;20199;-68
2022/06/18 00:39:29;;;;;;;3.80;2.50;;;23.90;99.90;;;;;;5138045;27;20201;-66
2022/06/18 00:41:58;;;;;;;3.10;2.73;;;23.90;99.90;;;;;;5137763;27;20161;-66
2022/06/18 00:44:36;;;;;;;3.23;2.90;;;23.90;99.90;;;;;;5137998;27;20244;-68
2022/06/18 00:47:19;;;;;;;2.33;2.23;;;24.00;99.90;;;;;;5137945;27;20164;-67
2022/06/18 00:50:06;;;;;;;3.23;2.53;;;24.00;99.90;;;;;;5136840;27;20180;-69
2022/06/18 00:53:01;;;;;;;3.23;2.37;;;24.10;99.90;;;;;;5137559;27;20193;-70
2022/06/18 00:55:37;;;;;;;2.30;2.03;;;23.90;99.90;;;;;;5136385;27;20191;-72
2022/06/18 00:58:20;;;;;;;2.50;2.30;;;23.80;99.90;;;;;;5136748;27;20519;-69
2022/06/18 01:00:48;;;;;;;5.37;2.63;;;23.70;99.90;;;;;;5136566;27;20192;-68
2022/06/18 01:03:28;;;;;;;4.10;2.47;;;23.60;99.90;;;;;;5137679;27;20170;-72
2022/06/18 01:05:56;;;;;;;3.27;3.00;;;23.60;99.90;;;;;;5136612;27;20230;-69
2022/06/18 01:08:26;;;;;;;3.63;2.90;;;23.50;99.90;;;;;;5137435;27;20190;-70
2022/06/18 01:10:57;;;;;;;3.53;3.23;;;23.40;99.90;;;;;;5137307;27;20219;-69
2022/06/18 01:13:28;;;;;;;2.37;2.17;;;23.20;99.90;;;;;;5137460;27;20176;-70
2022/06/18 01:15:55;;;;;;;2.40;1.97;;;23.00;99.90;;;;;;5137580;27;20166;-69
2022/06/18 01:18:22;;;;;;;2.73;2.40;;;22.50;99.90;;;;;;5136273;27;20173;-67
2022/06/18 01:20:51;;;;;;;5.53;3.90;;;22.60;99.90;;;;;;5137425;27;20165;-68
2022/06/18 01:23:25;;;;;;;3.17;2.77;;;22.30;99.90;;;;;;5137265;27;20168;-65
2022/06/18 01:25:54;;;;;;;2.90;2.80;;;21.90;99.90;;;;;;5137105;27;20161;-71
2022/06/18 01:28:20;;;;;;;2.93;2.73;;;-11.80;99.90;;;;;;5136116;27;20175;-68
2022/06/18 01:30:46;;;;;;;4.10;3.43;;;22.30;99.90;;;;;;5137296;27;20569;-67
2022/06/18 01:33:14;;;;;;;2.50;2.30;;;22.30;99.90;;;;;;5137184;27;20189;-65
2022/06/18 01:35:42;;;;;;;3.27;2.87;;;22.20;99.90;;;;;;5137129;27;20176;-68
2022/06/18 01:38:10;;;;;;;3.70;3.33;;;22.10;99.90;;;;;;5136991;27;20184;-70
2022/06/18 01:41:49;;;;;;;3.90;2.97;;;22.10;99.90;;;;;;5136730;27;20246;-69
2022/06/18 01:43:52;;;;;;;3.03;2.80;;;21.80;99.90;;;;;;5136749;27;20227;-65
2022/06/18 01:46:18;;;;;;;4.00;3.00;;;21.40;99.90;;;;;;5137017;27;20573;-67
2022/06/18 01:48:45;;;;;;;3.73;3.43;;;19.80;99.90;;;;;;5136737;27;20173;-66
2022/06/18 01:51:21;;;;;;;3.57;3.37;;;18.60;99.90;;;;;;5136954;27;20229;-66
2022/06/18 01:53:55;;;;;;;3.30;2.97;;;21.70;99.90;;;;;;5136663;27;20188;-67
2022/06/18 01:56:29;;;;;;;2.87;2.70;;;21.60;99.90;;;;;;5136643;27;20181;-68
2022/06/18 01:59:04;;;;;;;4.50;3.87;;;21.50;99.90;;;;;;5137001;27;20190;-74
2022/06/18 02:01:34;;;;;;;3.83;3.53;;;21.50;99.90;;;;;;5136807;27;20190;-73
2022/06/18 02:04:01;;;;;;;3.77;3.47;;;21.40;99.90;;;;;;5136735;27;20172;-72
2022/06/18 02:06:30;;;;;;;4.37;3.43;;;21.30;99.90;;;;;;5136786;27;20256;-70
2022/06/18 02:08:55;;;;;;;5.50;3.83;;;21.20;99.90;;;;;;5136378;27;20178;-72
2022/06/18 02:11:22;;;;;;;3.57;3.27;;;21.00;99.90;;;;;;5138504;27;20271;-74
2022/06/18 02:13:54;;;;;;;5.50;3.33;;;20.80;99.90;;;;;;5139888;27;20173;-73
2022/06/18 02:16:26;;;;;;;13.90;3.47;;;20.80;99.90;;;;;;5140959;27;20459;-73
2022/06/18 02:18:52;;;;;;;4.43;4.13;;;20.70;99.90;;;;;;5140671;27;20184;-73
2022/06/18 02:21:23;;;;;;;3.47;3.17;;;20.20;99.90;;;;;;5140921;27;20180;-73
2022/06/18 02:23:54;;;;;;;3.53;3.23;;;18.90;99.90;;;;;;5140453;27;20242;-74
2022/06/18 02:26:22;;;;;;;3.60;3.40;;;16.80;99.90;;;;;;5140757;27;20162;-73
2022/06/18 02:28:50;;;;;;;3.67;3.37;;;20.90;99.90;;;;;;5139551;27;20220;-73
2022/06/18 02:31:25;;;;;;;3.90;3.60;;;20.70;99.90;;;;;;5139573;27;20625;-72
2022/06/18 02:34:08;;;;;;;4.43;2.67;;;20.70;99.90;;;;;;5140547;27;20470;-73
2022/06/18 02:36:36;;;;;;;3.03;2.87;;;20.50;99.90;;;;;;5140219;27;20185;-73
2022/06/18 02:39:07;;;;;;;3.80;3.03;;;20.40;99.90;;;;;;5140166;27;20643;-73
2022/06/18 02:41:34;;;;;;;3.33;3.13;;;20.40;99.90;;;;;;5140390;27;20575;-72
2022/06/18 02:44:01;;;;;;;3.67;3.37;;;20.20;99.90;;;;;;5140435;27;20173;-72
2022/06/18 02:46:27;;;;;;;3.67;3.47;;;19.70;99.90;;;;;;5140422;27;20433;-73
2022/06/18 02:48:53;;;;;;;3.27;3.10;;;-23.90;99.90;;;;;;5140158;27;20180;-72
2022/06/18 02:51:19;;;;;;;5.03;3.67;;;-23.40;99.90;;;;;;5140334;27;20240;-73
2022/06/18 02:53:45;;;;;;;4.50;3.30;;;-25.60;99.90;;;;;;5139892;27;20189;-74
2022/06/18 02:56:14;;;;;;;3.17;2.97;;;-23.00;99.90;;;;;;5140404;27;20200;-73
2022/06/18 02:58:44;;;;;;;6.73;3.90;;;-17.30;99.90;;;;;;5139897;27;20607;-71
2022/06/18 03:01:22;;;;;;;6.53;4.03;;;-19.60;99.90;;;;;;5140155;27;20186;-71
2022/06/18 03:03:52;;;;;;;4.70;4.30;;;-14.50;99.90;;;;;;5139822;27;20157;-73
2022/06/18 03:06:21;;;;;;;5.40;4.00;;;-16.50;99.90;;;;;;5140272;27;20165;-73
2022/06/18 03:08:48;;;;;;;6.57;4.20;;;-22.40;99.90;;;;;;5139699;27;20626;-70
2022/06/18 03:14:02;;;;;;;4.17;3.87;;;-21.80;99.90;;;;;;5139729;27;20531;-66
2022/06/18 03:16:28;;;;;;;5.70;3.60;;;-26.80;99.90;;;;;;5139787;27;20486;-71
2022/06/18 03:18:56;;;;;;;4.27;3.90;;;-24.30;99.90;;;;;;5139864;27;20228;-72
2022/06/18 03:21:47;;;;;;;4.73;4.27;;;-25.00;99.90;;;;;;5139315;27;20162;-71
2022/06/18 03:24:13;;;;;;;3.80;3.47;;;-19.60;99.90;;;;;;5139519;27;20166;-72
2022/06/18 03:26:40;;;;;;;5.13;4.73;;;-17.90;99.90;;;;;;5139513;27;20244;-73
2022/06/18 03:29:07;;;;;;;5.03;3.70;;;-19.80;99.90;;;;;;5139637;27;20165;-70
2022/06/18 03:31:34;;;;;;;5.73;3.80;;;-16.20;99.90;;;;;;5138815;27;20512;-73
2022/06/18 03:34:00;;;;;;;5.07;4.43;;;-20.60;99.90;;;;;;5139534;27;20158;-73
2022/06/18 03:36:28;;;;;;;3.90;3.57;;;-17.60;99.90;;;;;;5138986;27;20226;-70
2022/06/18 03:38:54;;;;;;;3.80;3.50;;;-19.30;99.90;;;;;;5138227;27;20216;-69
2022/06/18 03:41:21;;;;;;;4.77;3.50;;;-24.20;99.90;;;;;;5139242;27;20569;-72
2022/06/18 03:43:49;;;;;;;5.87;4.30;;;-23.70;99.90;;;;;;5139302;27;20201;-66
2022/06/18 03:46:16;;;;;;;7.53;4.83;;;-22.00;99.90;;;;;;5139296;27;20175;-67
2022/06/18 03:48:55;;;;;;;8.67;4.13;;;-21.90;99.90;;;;;;5139157;27;20202;-66
2022/06/18 03:51:21;;;;;;;5.73;3.80;;;-18.80;99.90;;;;;;5138852;27;20196;-66
2022/06/18 03:53:48;;;;;;;4.13;3.83;;;-30.50;99.90;;;;;;5138851;27;20684;-70
2022/06/18 03:56:17;;;;;;;4.17;3.93;;;-20.30;99.90;;;;;;5137900;27;20175;-66
2022/06/18 03:58:43;;;;;;;3.90;3.60;;;-28.90;99.90;;;;;;5138885;27;20185;-66
2022/06/18 04:01:12;;;;;;;5.47;3.70;;;-30.40;99.90;;;;;;5138800;27;20212;-69
2022/06/18 04:03:38;;;;;;;3.73;3.53;;;-20.50;99.90;;;;;;5138829;27;20472;-67
2022/06/18 04:06:04;;;;;;;3.63;3.43;;;-24.90;99.90;;;;;;5138808;27;20174;-71
2022/06/18 04:08:30;;;;;;;4.33;4.03;;;-24.10;99.90;;;;;;5138855;27;20184;-71
2022/06/18 04:10:56;;;;;;;5.27;4.87;;;-32.10;99.90;;;;;;5137651;27;20169;-67
2022/06/18 04:13:22;;;;;;;4.67;4.27;;;-21.70;99.90;;;;;;5138631;27;20166;-69
2022/06/18 04:15:48;;;;;;;4.90;3.90;;;-23.40;99.90;;;;;;5138681;27;20256;-69
2022/06/18 04:18:17;;;;;;;3.67;3.33;;;-26.70;99.90;;;;;;5138649;27;20248;-70
2022/06/18 04:20:43;;;;;;;4.60;4.20;;;-28.10;99.90;;;;;;5138191;27;20177;-71
2022/06/18 04:23:11;;;;;;;4.73;3.47;;;-35.70;99.90;;;;;;5137558;27;20172;-69
2022/06/18 04:25:38;;;;;;;3.87;3.57;;;-34.00;99.90;;;;;;5138323;27;20478;-65
2022/06/18 04:28:04;;;;;;;4.10;3.80;;;-38.60;99.90;;;;;;5138531;27;20164;-73
2022/06/18 04:30:31;;;;;;;8.30;4.37;;;-33.60;99.90;;;;;;5138367;27;20204;-68
2022/06/18 04:32:58;;;;;;;4.80;3.80;;;-38.90;99.90;;;;;;5138162;27;20169;-72
2022/06/18 04:35:24;;;;;;;3.93;3.67;;;-40.00;99.90;;;;;;5137321;27;20178;-67
2022/06/18 04:37:50;;;;;;;3.90;3.53;;;-37.60;99.90;;;;;;5137958;27;20176;-68
2022/06/18 04:40:22;;;;;;;4.40;3.23;;;-33.00;99.90;;;;;;5138384;27;20257;-70
2022/06/18 04:42:48;;;;;;;4.10;3.80;;;-35.00;99.90;;;;;;5138044;27;20498;-70
2022/06/18 04:45:14;;;;;;;3.93;3.57;;;-34.70;99.90;;;;;;5138094;27;20245;-68
2022/06/18 04:47:40;;;;;;;6.90;4.57;;;-29.20;99.90;;;;;;5137928;27;20201;-72
2022/06/18 04:50:14;;;;;;;5.13;4.53;;;-32.40;99.90;;;;;;5137717;27;20179;-72
2022/06/18 04:52:39;;;;;;;6.07;3.27;;;-36.50;99.90;;;;;;5137768;27;20272;-68
2022/06/18 04:55:05;;;;;;;4.50;4.17;;;-40.00;99.90;;;;;;5137696;27;20232;-70
2022/06/18 04:57:31;;;;;;;4.57;4.17;;;-40.00;99.90;;;;;;5136652;27;20272;-70
2022/06/18 04:59:57;;;;;;;5.37;4.83;;;-40.00;99.90;;;;;;5137723;27;20280;-66
2022/06/18 05:02:25;;;;;;;4.03;3.70;;;-38.60;99.90;;;;;;5137545;27;20256;-70
2022/06/18 05:04:51;;;;;;;4.43;3.90;;;-28.70;99.90;;;;;;5137245;27;20184;-66
2022/06/18 05:07:16;;;;;;;4.33;3.73;;;-28.50;99.90;;;;;;5137587;27;20503;-65
2022/06/18 05:09:42;;;;;;;4.30;4.00;;;-30.40;99.90;;;;;;5137635;27;20172;-66
2022/06/18 05:12:08;;;;;;;4.87;4.50;;;-28.90;99.90;;;;;;5137484;27;20181;-72
2022/06/18 05:14:34;;;;;;;4.80;4.33;;;-28.70;99.90;;;;;;5137494;27;20173;-72
2022/06/18 05:17:02;;;;;;;4.20;3.60;;;-40.00;99.90;;;;;;5137247;27;20561;-67
2022/06/18 05:19:32;;;;;;;5.33;4.47;;;-40.00;99.90;;;;;;5136054;27;20273;-67
2022/06/18 05:21:59;;;;;;;8.37;5.77;;;-40.00;99.90;;;;;;5136152;27;20246;-70
2022/06/18 05:24:25;;;;;;;3.77;3.50;;;-40.00;99.90;;;;;;5137384;27;20165;-71
2022/06/18 05:26:55;;;;;;;7.83;3.97;;;-40.00;99.90;;;;;;5137102;27;20183;-67
2022/06/18 05:29:21;;;;;;;9.37;3.93;;;-40.00;99.90;;;;;;5137256;27;20248;-72
2022/06/18 05:31:47;;;;;;;7.87;4.57;;;-40.00;99.90;;;;;;5136841;27;20177;-67
2022/06/18 05:34:13;;;;;;;4.67;3.50;;;-40.00;99.90;;;;;;5137007;27;20591;-66
2022/06/18 05:36:39;;;;;;;5.30;4.67;;;-40.00;99.90;;;;;;5136955;27;20498;-70
2022/06/18 05:39:06;;;;;;;4.20;3.40;;;-40.00;99.90;;;;;;5137042;27;20201;-71
2022/06/18 05:41:33;;;;;;;3.67;3.40;;;-40.00;99.90;;;;;;5137295;27;20736;-67
2022/06/18 05:43:59;;;;;;;4.23;3.93;;;-38.30;99.90;;;;;;5137292;27;20228;-72
2022/06/18 05:46:25;;;;;;;4.97;4.50;;;-39.50;99.90;;;;;;5134995;27;20526;-72
2022/06/18 05:48:53;;;;;;;8.70;4.73;;;-40.00;99.90;;;;;;5136758;27;20293;-66
2022/06/18 05:51:19;;;;;;;3.67;3.37;;;-40.00;99.90;;;;;;5137045;27;20528;-65
2022/06/18 05:53:45;;;;;;;5.23;3.93;;;-40.00;99.90;;;;;;5136886;27;20264;-67
2022/06/18 05:56:11;;;;;;;6.40;4.30;;;-40.00;99.40;;;;;;5135944;27;20246;-71
2022/06/18 05:58:37;;;;;;;8.23;3.50;;;-40.00;99.00;;;;;;5136640;27;20201;-65
2022/06/18 06:01:03;;;;;;;4.70;3.60;;;-40.00;98.10;;;;;;5135411;27;20205;-70
2022/06/18 06:03:29;;;;;;;5.10;3.37;;;-40.00;97.60;;;;;;5136851;27;20482;-68
2022/06/18 06:05:55;;;;;;;8.70;4.00;;;-40.00;96.80;;;;;;5136821;27;20169;-66
2022/06/18 06:08:21;;;;;;;4.30;3.90;;;-27.20;99.00;;;;;;5135625;28;20177;-66
2022/06/18 06:13:31;;;;;;;4.67;3.17;;;23.20;99.90;;;;;;5136991;28;20216;-66
2022/06/18 06:15:57;;;;;;;3.73;3.47;;;23.30;99.90;;;;;;5136881;27;20169;-66
2022/06/18 06:18:24;;;;;;;3.80;3.30;;;23.30;99.90;;;;;;5136963;27;20226;-73
2022/06/18 06:20:53;;;;;;;9.03;4.17;;;23.10;99.90;;;;;;5137077;27;20507;-70
2022/06/18 06:23:19;;;;;;;5.30;3.03;;;22.20;99.90;;;;;;5137129;27;20644;-72
2022/06/18 06:25:46;;;;;;;9.67;4.20;;;23.70;99.90;;;;;;5137495;27;20613;-72
2022/06/18 06:28:20;;;;;;;5.47;3.63;;;23.70;99.90;;;;;;5140509;27;20561;-72
2022/06/18 06:30:46;;;;;;;9.43;3.23;;;23.80;99.90;;;;;;5137311;27;20194;-72
2022/06/18 06:33:12;;;;;;;5.60;2.83;;;23.80;99.90;;;;;;5149842;27;20204;-73
2022/06/18 06:35:43;;;;;;;3.97;3.47;;;23.90;99.90;;;;;;5156767;27;20173;-73
2022/06/18 06:38:10;;;;;;;7.87;3.30;;;24.00;99.90;;;;;;5158086;27;20195;-72
2022/06/18 06:40:36;;;;;;;10.27;4.60;;;24.00;99.90;;;;;;5157503;27;20546;-74
2022/06/18 06:43:03;;;;;;;4.10;2.90;;;24.00;99.90;;;;;;5157257;27;20688;-73
2022/06/18 06:45:32;;;;;;;4.60;3.50;;;24.00;99.90;;;;;;5158060;27;20172;-74
2022/06/18 06:47:58;;;;;;;7.97;3.73;;;24.00;99.90;;;;;;5158840;27;20168;-76
2022/06/18 06:50:26;;;;;;;6.60;3.77;;;24.00;99.90;;;;;;5158728;27;20165;-68
2022/06/18 06:52:53;;;;;;;9.53;4.80;;;24.00;99.90;;;;;;5141407;27;20201;-69
2022/06/18 06:58:07;;;;;;;7.10;4.57;;;23.70;99.90;;;;;;5139496;27;20268;-68
2022/06/18 07:00:37;;;;;;;5.27;4.07;;;23.60;99.90;;;;;;5141296;27;20193;-74
2022/06/18 07:03:03;;;;;;;6.03;3.40;;;24.60;99.90;;;;;;5141535;27;20177;-73
2022/06/18 07:05:29;;;;;;;7.77;3.70;;;24.70;99.90;;;;;;5141193;27;20177;-73
2022/06/18 07:07:55;;;;;;;8.10;4.20;;;24.80;99.90;;;;;;5141770;27;20174;-77
2022/06/18 07:10:21;;;;;;;4.63;3.43;;;24.80;99.90;;;;;;5141262;27;20170;-71
2022/06/18 07:12:49;;;;;;;5.67;4.03;;;24.90;99.90;;;;;;5141945;27;20255;-74
2022/06/18 07:15:15;;;;;;;8.73;3.37;;;24.80;99.90;;;;;;5132038;27;20185;-76
2022/06/18 07:17:42;;;;;;;4.77;3.70;;;24.80;99.90;;;;;;5140861;27;20214;-74
2022/06/18 07:20:15;;;;;;;4.93;4.17;;;24.70;99.90;;;;;;5140679;27;20216;-73
2022/06/18 07:22:41;;;;;;;9.53;4.07;;;24.70;99.90;;;;;;5140363;27;20178;-73
2022/06/18 07:25:08;;;;;;;7.60;4.17;;;24.60;99.90;;;;;;5141725;27;20166;-75
2022/06/18 07:27:34;;;;;;;11.70;4.17;;;24.20;99.90;;;;;;5139937;27;20573;-73
2022/06/18 07:30:00;;;;;;;13.43;4.83;;;-17.20;89.30;;;;;;5138676;27;20177;-72
2022/06/18 07:32:26;;;;;;;8.43;4.40;;;-21.50;86.30;;;;;;5138777;27;20448;-76
2022/06/18 07:34:55;;;;;;;5.23;3.30;;;23.90;99.90;;;;;;5139683;27;20181;-73
2022/06/18 07:37:21;;;;;;;7.47;3.20;;;25.30;99.90;;;;;;5120519;28;20243;-74
2022/06/18 07:39:48;;;;;;;7.60;3.63;;;25.30;99.90;;;;;;5139720;27;20208;-74
2022/06/18 07:42:18;;;;;;;4.87;3.67;;;25.30;99.80;;;;;;5141103;27;20210;-74
2022/06/18 07:44:45;;;;;;;8.83;4.67;;;25.10;99.90;;;;;;5140643;27;20174;-74
2022/06/18 07:47:18;;;;;;;5.33;3.20;;;25.00;99.40;;;;;;5141210;27;20185;-71
2022/06/18 07:49:47;;;;;;;6.93;3.73;;;24.60;99.90;;;;;;5139805;27;20173;-73
2022/06/18 07:52:15;;;;;;;12.40;3.83;;;-26.20;78.10;;;;;;5139728;27;20214;-71
2022/06/18 07:54:42;;;;;;;5.67;3.63;;;-37.50;71.10;;;;;;5140897;27;20166;-73
2022/06/18 07:57:08;;;;;;;4.70;3.07;;;-33.50;74.20;;;;;;5140687;27;20166;-73
2022/06/18 07:59:34;;;;;;;5.73;2.90;;;25.50;99.00;;;;;;5140421;27;20358;-69
2022/06/18 08:02:00;;;;;;;7.43;3.57;;;26.00;98.70;;;;;;5140050;27;20161;-69
2022/06/18 08:04:26;;;;;;;5.57;3.20;;;26.10;98.30;;;;;;5140104;27;20622;-69
2022/06/18 08:06:53;;;;;;;5.23;3.63;;;24.80;99.00;;;;;;5139767;27;20177;-72
2022/06/18 08:09:19;;;;;;;11.30;4.90;;;26.00;98.30;;;;;;5139608;27;20173;-71
2022/06/18 08:11:45;;;;;;;6.57;3.40;;;26.00;98.70;;;;;;5139747;27;20235;-73
2022/06/18 08:14:12;;;;;;;6.63;4.50;;;26.00;98.30;;;;;;5139161;27;20178;-71
2022/06/18 08:16:37;;;;;;;6.37;3.87;;;26.00;98.30;;;;;;5139790;27;20252;-71
2022/06/18 08:19:03;;;;;;;7.67;4.20;;;26.10;98.20;;;;;;5139631;27;20551;-70
2022/06/18 08:21:41;;;;;;;9.50;4.27;;;25.90;97.50;;;;;;5138955;27;20165;-72
2022/06/18 08:24:10;;;;;;;8.03;3.50;;;25.80;97.60;;;;;;5138913;27;20161;-70
2022/06/18 08:26:38;;;;;;;5.20;3.10;;;25.40;97.40;;;;;;5138660;27;20169;-70
2022/06/18 08:29:06;;;;;;;14.77;4.77;;;24.90;97.10;;;;;;5138980;27;20161;-73
2022/06/18 08:31:32;;;;;;;6.37;3.17;;;26.50;97.70;;;;;;5139003;27;20261;-70
2022/06/18 08:33:58;;;;;;;6.30;3.03;;;26.50;98.00;;;;;;5139501;27;20197;-72
2022/06/18 08:36:25;;;;;;;7.60;3.00;;;26.60;97.90;;;;;;5137364;27;20177;-70
2022/06/18 08:38:52;;;;;;;8.73;3.73;;;26.60;98.00;;;;;;5138476;27;20211;-70
2022/06/18 08:41:51;;;;;;;7.83;3.50;;;26.60;97.50;;;;;;5138008;27;20218;-66
2022/06/18 08:44:35;;;;;;;6.63;3.37;;;26.50;97.10;;;;;;5138475;27;20162;-69
2022/06/18 08:47:16;;;;;;;20.00;3.70;;;26.10;96.30;;;;;;5138231;27;20166;-71
2022/06/18 08:50:03;;;;;;;6.90;3.60;;;25.50;96.20;;;;;;5139072;27;20230;-74
2022/06/18 08:52:42;;;;;;;5.43;3.17;;;27.00;97.10;;;;;;5138420;27;20218;-72
2022/06/18 08:55:16;;;;;;;6.90;3.47;;;27.10;97.40;;;;;;5138866;27;20169;-73
2022/06/18 08:58:04;;;;;;;7.97;3.93;;;27.20;96.70;;;;;;5139406;27;20169;-72
2022/06/18 09:01:03;;;;;;;9.37;3.93;;;27.20;95.70;;;;;;5138731;27;20503;-70
2022/06/18 09:03:41;;;;;;;7.40;3.03;;;25.80;96.00;;;;;;5138188;27;20169;-71
2022/06/18 09:06:19;;;;;;;4.93;3.13;;;27.40;96.20;;;;;;5137720;27;20205;-70
2022/06/18 09:09:12;;;;;;;7.27;3.63;;;27.40;95.30;;;;;;5138133;27;20252;-72
2022/06/18 09:11:53;;;;;;;6.23;3.40;;;27.10;96.00;;;;;;5138203;27;20173;-70
2022/06/18 09:14:53;;;;;;;6.20;3.30;;;25.50;95.10;;;;;;5138122;27;20165;-73
2022/06/18 09:17:34;;;;;;;9.87;3.83;;;-38.40;60.70;;;;;;5137202;27;20173;-74
2022/06/18 09:20:19;;;;;;;6.17;3.17;;;-31.10;66.90;;;;;;5137447;27;20473;-68
2022/06/18 09:22:52;;;;;;;7.97;3.50;;;-32.40;65.20;;;;;;5137754;27;20173;-71
2022/06/18 09:25:22;;;;;;;7.60;3.50;;;-38.60;61.60;;;;;;5138187;27;20222;-71
2022/06/18 09:28:01;;;;;;;5.43;3.17;;;-40.00;60.00;;;;;;5138442;27;20150;-75
2022/06/18 09:30:43;;;;;;;8.00;3.43;;;-40.00;59.10;;;;;;5138911;27;20173;-73
2022/06/18 09:33:16;;;;;;;4.03;2.73;;;-40.00;60.30;;;;;;5137735;27;20177;-72
2022/06/18 09:35:55;;;;;;;10.83;3.87;;;-40.00;59.30;;;;;;5138719;27;20245;-75
2022/06/18 09:38:42;;;;;;;13.33;4.53;;;-40.00;58.60;;;;;;5137598;27;20191;-69
2022/06/18 09:41:15;;;;;;;5.37;3.30;;;-40.00;58.50;;;;;;5136484;27;20181;-72
2022/06/18 09:44:22;;;;;;;10.33;3.53;;;-40.00;58.30;;;;;;5136831;27;20260;-69
2022/06/18 09:47:00;;;;;;;7.47;3.63;;;-40.00;57.40;;;;;;5114879;28;20605;-70
2022/06/18 09:49:28;;;;;;;4.90;2.70;;;-40.00;57.00;;;;;;5134476;27;20478;-68
2022/06/18 09:52:04;;;;;;;5.57;3.40;;;-40.00;56.50;;;;;;5137634;27;20193;-70
2022/06/18 09:54:40;;;;;;;3.90;3.07;;;-40.00;56.40;;;;;;5117545;28;20189;-71
2022/06/18 09:57:08;;;;;;;9.87;4.87;;;-40.00;56.90;;;;;;5117697;28;20538;-69
2022/06/18 09:59:39;;;;;;;7.37;3.07;;;-40.00;57.40;;;;;;5117259;28;20182;-75
2022/06/18 10:02:21;;;;;;;8.03;3.53;;;-40.00;56.30;;;;;;5116644;28;20212;-74
2022/06/18 10:07:39;;;;;;;6.10;2.80;;;-40.00;56.30;;;;;;5135087;28;20195;-71
2022/06/18 10:10:16;;;;;;;9.87;4.63;;;-40.00;57.10;;;;;;5136362;27;20611;-75
2022/06/18 10:13:05;;;;;;;3.27;3.07;;;-40.00;55.60;;;;;;5137314;27;20176;-73
2022/06/18 10:15:31;;;;;;;9.07;2.80;;;-40.00;57.60;;;;;;5137056;27;20252;-72
2022/06/18 10:18:34;;;;;;;6.57;3.00;;;-40.00;58.10;;;;;;5137053;27;20192;-69
2022/06/18 10:21:11;;;;;;;4.87;3.00;;;-40.00;54.60;;;;;;5136095;28;20177;-69
2022/06/18 10:24:07;;;;;;;6.37;3.80;;;-40.00;56.30;;;;;;5135398;28;20226;-68
2022/06/18 10:26:37;;;;;;;8.90;3.85;;;-40.00;56.70;;;;;;5137465;27;20170;-67
2022/06/18 10:29:30;;;;;;;3.33;3.10;;;-40.00;55.20;;;;;;5136779;27;20173;-69
2022/06/18 10:32:01;;;;;;;4.45;2.83;;;-40.00;53.90;;;;;;5134627;27;20338;-68
2022/06/18 10:35:08;;;;;;;3.33;3.10;;;-40.00;54.50;;;;;;5139908;27;20170;-70
2022/06/18 10:38:08;;;;;;;8.73;3.55;;;-40.00;56.10;;;;;;5139145;27;20228;-69
2022/06/18 10:40:59;;;;;;;14.23;2.97;;;-40.00;54.40;;;;;;5140592;27;20612;-68
2022/06/18 10:43:28;;;;;;;8.45;6.32;;;-40.00;53.90;;;;;;5140020;27;20161;-72
2022/06/18 10:45:59;;;;;;;8.60;4.03;;;-40.00;53.70;;;;;;5141004;27;20173;-73
2022/06/18 10:48:30;;;;;;;4.82;3.33;;;-40.00;54.20;;;;;;5141403;27;20158;-74
2022/06/18 10:50:59;;;;;;;3.25;2.97;;;-40.00;51.30;;;;;;5141108;27;20165;-73
2022/06/18 10:53:44;;;;;;;5.45;3.65;;;-40.00;51.40;;;;;;5140628;27;20188;-71
2022/06/18 10:56:22;;;;;;;3.33;3.08;;;-40.00;50.60;;;;;;5140331;27;20192;-78
2022/06/18 10:58:55;;;;;;;3.33;3.10;;;-40.00;52.30;;;;;;5139115;27;20177;-71
2022/06/18 11:01:31;;;;;;;10.23;3.63;;;-40.00;49.30;;;;;;5142209;27;20169;-74
2022/06/18 11:04:24;;;;;;;4.18;2.53;;;-40.00;50.80;;;;;;5140168;27;20306;-71
2022/06/18 11:06:59;;;;;;;4.82;3.25;;;-40.00;50.40;;;;;;5132887;27;20472;-73
2022/06/18 11:09:29;;;;;;;8.13;3.65;;;-40.00;49.10;;;;;;5139595;27;20176;-72
2022/06/18 11:12:00;;;;;;;3.05;2.53;;;-40.00;50.80;;;;;;5138358;27;20176;-72
2022/06/18 11:14:26;;;;;;;6.18;3.17;;;-40.00;50.20;;;;;;5141467;27;20181;-74
2022/06/18 11:16:55;;;;;;;18.30;4.88;;;-40.00;50.10;;;;;;5140874;27;20451;-71
2022/06/18 11:19:29;;;;;;;3.47;3.17;;;-40.00;51.90;;;;;;5139716;27;20286;-71
2022/06/18 11:22:06;;;;;;;4.55;2.85;;;-40.00;50.90;;;;;;5140690;27;20184;-71
2022/06/18 11:24:37;;;;;;;3.58;2.90;;;-40.00;47.60;;;;;;5142419;27;20224;-72
2022/06/18 11:27:07;;;;;;;2.97;2.65;;;-40.00;48.10;;;;;;5139816;27;20176;-70
2022/06/18 11:29:37;;;;;;;6.53;3.78;;;-40.00;48.00;;;;;;5137061;27;20185;-70
2022/06/18 11:32:23;;;;;;;6.93;3.28;;;-40.00;46.20;;;;;;5138111;27;20623;-69
2022/06/18 11:35:06;;;;;;;5.57;3.58;;;-40.00;45.40;;;;;;5134725;27;20195;-69
2022/06/18 11:37:32;;;;;;;6.82;3.40;;;-40.00;45.70;;;;;;5137805;27;20200;-68
2022/06/18 11:40:04;;;;;;;4.20;2.80;;;-40.00;45.80;;;;;;5137978;27;20627;-74
2022/06/18 11:43:00;;;;;;;10.80;3.30;;;-40.00;44.10;;;;;;5140248;27;20170;-74
2022/06/18 11:45:42;;;;;;;4.72;4.22;;;-40.00;45.20;;;;;;5129529;27;20196;-72
2022/06/18 11:48:32;;;;;;;4.18;2.35;;;-40.00;46.20;;;;;;5137418;27;20185;-73
2022/06/18 11:51:00;;;;;;;2.92;2.72;;;-39.00;45.30;;;;;;5137030;27;20181;-72
2022/06/18 11:53:31;;;;;;;5.63;3.15;;;-19.80;54.50;;;;;;5138649;27;20189;-72
2022/06/18 11:55:58;;;;;;;3.70;2.72;;;-0.90;63.30;;;;;;5140580;27;20254;-73
2022/06/18 11:58:36;;;;;;;5.63;2.95;;;4.30;64.70;;;;;;5138959;27;20180;-74
2022/06/18 12:01:29;;;;;;;6.13;2.63;;;8.70;63.60;;;;;;5138628;27;20193;-75
2022/06/18 12:04:05;;;;;;;8.45;3.13;;;11.10;65.00;;;;;;5143306;27;20173;-71
2022/06/18 12:06:41;;;;;;;5.55;3.88;;;12.70;63.00;;;;;;5138573;27;20173;-70
2022/06/18 12:09:10;;;;;;;3.78;2.85;;;14.30;63.60;;;;;;5139161;27;20584;-69
2022/06/18 12:12:16;;;;;;;3.50;3.20;;;15.10;63.00;;;;;;5138063;27;20162;-70
2022/06/18 12:14:57;;;;;;;4.45;3.95;;;14.30;64.50;;;;;;5131973;27;20177;-71
2022/06/18 12:17:42;;;;;;;4.93;3.22;;;13.60;63.80;;;;;;5138994;27;20173;-75
2022/06/18 12:20:43;;;;;;;5.00;3.38;;;14.40;66.00;;;;;;5140799;27;20216;-74
2022/06/18 12:23:28;;;;;;;4.28;3.35;;;13.00;61.60;;;;;;5138881;27;20228;-75
2022/06/18 12:26:10;;;;;;;6.60;3.17;;;15.30;61.10;;;;;;5139614;27;20255;-70
2022/06/18 12:28:59;;;;;;;3.50;3.13;;;15.70;62.80;;;;;;5128487;27;20172;-72
2022/06/18 12:31:56;;;;;;;6.55;3.33;;;13.70;63.80;;;;;;5138907;27;20268;-73
2022/06/18 12:35:05;;;;;;;4.10;3.75;;;16.50;60.90;;;;;;5130412;27;20197;-70
2022/06/18 12:37:52;;;;;;;6.82;3.25;;;16.10;62.30;;;;;;5091358;27;20235;-74
2022/06/18 12:40:46;;;;;;;4.35;2.92;;;16.40;59.00;;;;;;5139166;27;20208;-73
2022/06/18 12:43:50;;;;;;;3.33;3.20;;;16.00;59.70;;;;;;5139173;27;20173;-70
2022/06/18 12:46:26;;;;;;;6.00;3.58;;;14.90;60.70;;;;;;5125825;27;20189;-73
2022/06/18 12:49:11;;;;;;;3.05;2.85;;;16.40;57.80;;;;;;5138087;27;20165;-77
2022/06/18 12:51:48;;;;;;;3.95;3.22;;;17.30;57.80;;;;;;5138056;27;20568;-72
2022/06/18 12:54:24;;;;;;;10.55;4.13;;;17.20;57.20;;;;;;5138604;27;20240;-69
2022/06/18 12:57:09;;;;;;;7.57;3.67;;;16.70;54.60;;;;;;5136957;27;20173;-69
2022/06/18 13:00:03;;;;;;;6.07;3.70;;;16.80;56.70;;;;;;5136799;27;20192;-72
2022/06/18 13:02:57;;;;;;;5.13;3.67;;;16.30;56.70;;;;;;5130400;27;20463;-69
2022/06/18 13:05:25;;;;;;;4.95;3.58;;;17.50;54.30;;;;;;5137470;27;20157;-73
2022/06/18 13:07:56;;;;;;;3.92;3.22;;;16.70;53.30;;;;;;5138788;27;20173;-75
2022/06/18 13:10:28;;;;;;;11.93;4.25;;;16.30;52.40;;;;;;5130475;27;20197;-75
2022/06/18 13:13:13;;;;;;;5.03;4.00;;;16.60;52.20;;;;;;5142486;27;20260;-73
2022/06/18 13:15:45;;;;;;;3.70;3.42;;;14.70;50.30;;;;;;5137050;27;20181;-74
2022/06/18 13:18:28;;;;;;;6.60;3.85;;;14.70;53.30;;;;;;5135318;27;20188;-73
2022/06/18 13:20:56;;;;;;;5.10;3.67;;;14.70;51.60;;;;;;5135417;27;20201;-77
2022/06/18 13:29:35;;;;;;;3.95;3.58;;;14.30;49.70;;;;;;5136300;27;20619;-75